sensor_id;sensor_type;location;lat;lon;timestamp;P1;durP1;ratioP1;P2;durP2;ratioP2
50671;SDS011;46021;55.882;37.654;2022-08-26T00:02:04;54.25;;;34.25;;
50671;SDS011;46021;55.882;37.654;2022-08-26T00:04:32;51.30;;;32.72;;
50671;SDS011;46021;55.882;37.654;2022-08-26T00:07:02;54.25;;;35.88;;
50671;SDS011;46021;55.882;37.654;2022-08-26T00:11:59;60.45;;;40.35;;
50671;SDS011;46021;55.882;37.654;2022-08-26T00:14:26;59.03;;;38.25;;
50671;SDS011;46021;55.882;37.654;2022-08-26T00:16:53;59.72;;;38.38;;
50671;SDS011;46021;55.882;37.654;2022-08-26T00:19:19;64.15;;;38.13;;
50671;SDS011;46021;55.882;37.654;2022-08-26T00:21:46;56.67;;;38.53;;
50671;SDS011;46021;55.882;37.654;2022-08-26T00:26:41;70.97;;;42.72;;
50671;SDS011;46021;55.882;37.654;2022-08-26T00:29:08;64.55;;;42.58;;
50671;SDS011;46021;55.882;37.654;2022-08-26T00:31:34;67.43;;;41.50;;
50671;SDS011;46021;55.882;37.654;2022-08-26T00:34:01;65.10;;;41.87;;
50671;SDS011;46021;55.882;37.654;2022-08-26T00:36:28;70.90;;;42.53;;
50671;SDS011;46021;55.882;37.654;2022-08-26T00:38:54;66.05;;;42.72;;
50671;SDS011;46021;55.882;37.654;2022-08-26T00:41:21;66.30;;;42.95;;
50671;SDS011;46021;55.882;37.654;2022-08-26T00:43:49;67.55;;;42.03;;
50671;SDS011;46021;55.882;37.654;2022-08-26T00:46:17;67.15;;;40.97;;
50671;SDS011;46021;55.882;37.654;2022-08-26T00:48:47;68.28;;;40.17;;
50671;SDS011;46021;55.882;37.654;2022-08-26T00:51:18;69.10;;;42.63;;
50671;SDS011;46021;55.882;37.654;2022-08-26T00:53:49;76.47;;;43.55;;
50671;SDS011;46021;55.882;37.654;2022-08-26T00:56:19;64.88;;;41.95;;
50671;SDS011;46021;55.882;37.654;2022-08-26T00:58:51;65.43;;;41.83;;
50671;SDS011;46021;55.882;37.654;2022-08-26T01:01:20;64.25;;;41.08;;
50671;SDS011;46021;55.882;37.654;2022-08-26T01:03:46;62.08;;;39.88;;
50671;SDS011;46021;55.882;37.654;2022-08-26T01:06:13;64.00;;;41.38;;
50671;SDS011;46021;55.882;37.654;2022-08-26T01:08:40;62.47;;;39.10;;
50671;SDS011;46021;55.882;37.654;2022-08-26T01:11:07;59.58;;;41.33;;
50671;SDS011;46021;55.882;37.654;2022-08-26T01:13:37;71.15;;;42.15;;
50671;SDS011;46021;55.882;37.654;2022-08-26T01:16:05;66.43;;;42.40;;
50671;SDS011;46021;55.882;37.654;2022-08-26T01:18:35;66.55;;;42.25;;
50671;SDS011;46021;55.882;37.654;2022-08-26T01:21:03;64.28;;;44.50;;
50671;SDS011;46021;55.882;37.654;2022-08-26T01:23:38;68.97;;;42.85;;
50671;SDS011;46021;55.882;37.654;2022-08-26T01:26:08;69.60;;;41.17;;
50671;SDS011;46021;55.882;37.654;2022-08-26T01:28:37;70.82;;;44.22;;
50671;SDS011;46021;55.882;37.654;2022-08-26T01:31:26;61.63;;;42.30;;
50671;SDS011;46021;55.882;37.654;2022-08-26T01:33:56;62.17;;;41.65;;
50671;SDS011;46021;55.882;37.654;2022-08-26T01:36:26;71.90;;;41.83;;
50671;SDS011;46021;55.882;37.654;2022-08-26T01:38:54;63.03;;;40.40;;
50671;SDS011;46021;55.882;37.654;2022-08-26T01:41:22;67.93;;;42.28;;
50671;SDS011;46021;55.882;37.654;2022-08-26T01:43:51;67.60;;;39.92;;
50671;SDS011;46021;55.882;37.654;2022-08-26T01:46:20;59.45;;;39.25;;
50671;SDS011;46021;55.882;37.654;2022-08-26T01:48:48;60.38;;;41.47;;
50671;SDS011;46021;55.882;37.654;2022-08-26T01:51:16;70.68;;;41.20;;
50671;SDS011;46021;55.882;37.654;2022-08-26T01:53:44;67.68;;;41.67;;
50671;SDS011;46021;55.882;37.654;2022-08-26T01:56:12;63.55;;;42.20;;
50671;SDS011;46021;55.882;37.654;2022-08-26T01:58:41;67.80;;;41.58;;
50671;SDS011;46021;55.882;37.654;2022-08-26T02:01:11;62.72;;;41.10;;
50671;SDS011;46021;55.882;37.654;2022-08-26T02:03:42;73.05;;;42.33;;
50671;SDS011;46021;55.882;37.654;2022-08-26T02:06:16;60.22;;;41.15;;
50671;SDS011;46021;55.882;37.654;2022-08-26T02:08:45;65.72;;;41.17;;
50671;SDS011;46021;55.882;37.654;2022-08-26T02:11:14;66.18;;;41.00;;
50671;SDS011;46021;55.882;37.654;2022-08-26T02:13:42;64.88;;;41.08;;
50671;SDS011;46021;55.882;37.654;2022-08-26T02:16:10;68.13;;;41.20;;
50671;SDS011;46021;55.882;37.654;2022-08-26T02:18:40;63.38;;;39.40;;
50671;SDS011;46021;55.882;37.654;2022-08-26T02:21:09;60.20;;;39.35;;
50671;SDS011;46021;55.882;37.654;2022-08-26T02:23:36;67.13;;;41.67;;
50671;SDS011;46021;55.882;37.654;2022-08-26T02:26:04;64.13;;;41.17;;
50671;SDS011;46021;55.882;37.654;2022-08-26T02:28:36;66.45;;;40.78;;
50671;SDS011;46021;55.882;37.654;2022-08-26T02:31:07;62.40;;;40.53;;
50671;SDS011;46021;55.882;37.654;2022-08-26T02:33:34;60.53;;;40.83;;
50671;SDS011;46021;55.882;37.654;2022-08-26T02:36:00;64.93;;;41.13;;
50671;SDS011;46021;55.882;37.654;2022-08-26T02:38:27;72.37;;;43.20;;
50671;SDS011;46021;55.882;37.654;2022-08-26T02:40:54;67.43;;;43.03;;
50671;SDS011;46021;55.882;37.654;2022-08-26T02:43:20;67.80;;;40.88;;
50671;SDS011;46021;55.882;37.654;2022-08-26T02:45:48;59.97;;;41.13;;
50671;SDS011;46021;55.882;37.654;2022-08-26T02:48:15;60.78;;;39.47;;
50671;SDS011;46021;55.882;37.654;2022-08-26T02:50:43;58.17;;;39.90;;
50671;SDS011;46021;55.882;37.654;2022-08-26T02:53:10;69.50;;;41.17;;
50671;SDS011;46021;55.882;37.654;2022-08-26T02:55:37;65.53;;;40.75;;
50671;SDS011;46021;55.882;37.654;2022-08-26T02:58:04;64.47;;;40.03;;
50671;SDS011;46021;55.882;37.654;2022-08-26T03:00:31;63.67;;;39.63;;
50671;SDS011;46021;55.882;37.654;2022-08-26T03:02:58;64.85;;;40.75;;
50671;SDS011;46021;55.882;37.654;2022-08-26T03:05:24;64.70;;;40.25;;
50671;SDS011;46021;55.882;37.654;2022-08-26T03:07:51;62.33;;;39.30;;
50671;SDS011;46021;55.882;37.654;2022-08-26T03:10:18;64.47;;;40.42;;
50671;SDS011;46021;55.882;37.654;2022-08-26T03:12:45;65.15;;;40.03;;
50671;SDS011;46021;55.882;37.654;2022-08-26T03:15:12;62.55;;;39.83;;
50671;SDS011;46021;55.882;37.654;2022-08-26T03:17:40;62.60;;;38.38;;
50671;SDS011;46021;55.882;37.654;2022-08-26T03:20:08;65.50;;;39.63;;
50671;SDS011;46021;55.882;37.654;2022-08-26T03:22:35;62.13;;;39.88;;
50671;SDS011;46021;55.882;37.654;2022-08-26T03:25:02;72.22;;;38.55;;
50671;SDS011;46021;55.882;37.654;2022-08-26T03:27:30;57.60;;;39.05;;
50671;SDS011;46021;55.882;37.654;2022-08-26T03:29:57;64.97;;;38.88;;
50671;SDS011;46021;55.882;37.654;2022-08-26T03:32:42;64.65;;;38.83;;
50671;SDS011;46021;55.882;37.654;2022-08-26T03:35:09;63.97;;;39.43;;
50671;SDS011;46021;55.882;37.654;2022-08-26T03:37:37;67.25;;;38.70;;
50671;SDS011;46021;55.882;37.654;2022-08-26T03:40:04;57.33;;;36.58;;
50671;SDS011;46021;55.882;37.654;2022-08-26T03:42:33;68.25;;;37.00;;
50671;SDS011;46021;55.882;37.654;2022-08-26T03:47:29;59.97;;;36.73;;
50671;SDS011;46021;55.882;37.654;2022-08-26T03:49:56;66.20;;;38.30;;
50671;SDS011;46021;55.882;37.654;2022-08-26T03:54:50;59.67;;;39.30;;
50671;SDS011;46021;55.882;37.654;2022-08-26T03:57:17;58.10;;;36.87;;
50671;SDS011;46021;55.882;37.654;2022-08-26T03:59:43;58.77;;;37.00;;
50671;SDS011;46021;55.882;37.654;2022-08-26T04:02:10;58.67;;;36.70;;
50671;SDS011;46021;55.882;37.654;2022-08-26T04:04:36;64.33;;;36.63;;
50671;SDS011;46021;55.882;37.654;2022-08-26T04:07:03;63.97;;;37.87;;
50671;SDS011;46021;55.882;37.654;2022-08-26T04:09:30;61.97;;;38.47;;
50671;SDS011;46021;55.882;37.654;2022-08-26T04:11:57;79.20;;;41.33;;
50671;SDS011;46021;55.882;37.654;2022-08-26T04:14:24;70.67;;;38.80;;
50671;SDS011;46021;55.882;37.654;2022-08-26T04:16:52;64.38;;;40.72;;
50671;SDS011;46021;55.882;37.654;2022-08-26T04:19:21;69.90;;;42.00;;
50671;SDS011;46021;55.882;37.654;2022-08-26T04:21:49;64.72;;;41.58;;
50671;SDS011;46021;55.882;37.654;2022-08-26T04:24:17;75.65;;;40.47;;
50671;SDS011;46021;55.882;37.654;2022-08-26T04:26:46;64.40;;;40.38;;
50671;SDS011;46021;55.882;37.654;2022-08-26T04:31:41;66.00;;;40.80;;
50671;SDS011;46021;55.882;37.654;2022-08-26T04:34:07;69.40;;;42.00;;
50671;SDS011;46021;55.882;37.654;2022-08-26T04:36:34;66.93;;;41.55;;
50671;SDS011;46021;55.882;37.654;2022-08-26T04:39:01;67.38;;;41.42;;
50671;SDS011;46021;55.882;37.654;2022-08-26T04:41:29;65.45;;;40.80;;
50671;SDS011;46021;55.882;37.654;2022-08-26T04:43:57;75.05;;;41.63;;
50671;SDS011;46021;55.882;37.654;2022-08-26T04:46:24;57.92;;;38.97;;
50671;SDS011;46021;55.882;37.654;2022-08-26T04:48:51;67.88;;;40.28;;
50671;SDS011;46021;55.882;37.654;2022-08-26T04:51:18;64.75;;;39.63;;
50671;SDS011;46021;55.882;37.654;2022-08-26T04:53:52;62.58;;;37.72;;
50671;SDS011;46021;55.882;37.654;2022-08-26T04:56:22;65.80;;;39.08;;
50671;SDS011;46021;55.882;37.654;2022-08-26T04:58:49;72.18;;;38.55;;
50671;SDS011;46021;55.882;37.654;2022-08-26T05:01:16;56.38;;;38.17;;
50671;SDS011;46021;55.882;37.654;2022-08-26T05:03:43;55.97;;;37.42;;
50671;SDS011;46021;55.882;37.654;2022-08-26T05:06:09;61.20;;;36.97;;
50671;SDS011;46021;55.882;37.654;2022-08-26T05:08:37;62.30;;;37.67;;
50671;SDS011;46021;55.882;37.654;2022-08-26T05:11:04;59.08;;;36.60;;
50671;SDS011;46021;55.882;37.654;2022-08-26T05:13:31;64.20;;;38.13;;
50671;SDS011;46021;55.882;37.654;2022-08-26T05:16:01;59.28;;;36.03;;
50671;SDS011;46021;55.882;37.654;2022-08-26T05:18:30;57.13;;;36.80;;
50671;SDS011;46021;55.882;37.654;2022-08-26T05:20:59;56.70;;;34.08;;
50671;SDS011;46021;55.882;37.654;2022-08-26T05:23:27;59.08;;;35.20;;
50671;SDS011;46021;55.882;37.654;2022-08-26T05:25:56;62.47;;;35.08;;
50671;SDS011;46021;55.882;37.654;2022-08-26T05:28:24;59.28;;;34.78;;
50671;SDS011;46021;55.882;37.654;2022-08-26T05:30:52;55.50;;;36.40;;
50671;SDS011;46021;55.882;37.654;2022-08-26T05:33:20;58.95;;;34.63;;
50671;SDS011;46021;55.882;37.654;2022-08-26T05:35:49;62.65;;;35.58;;
50671;SDS011;46021;55.882;37.654;2022-08-26T05:38:16;54.22;;;35.15;;
50671;SDS011;46021;55.882;37.654;2022-08-26T05:40:45;61.15;;;35.00;;
50671;SDS011;46021;55.882;37.654;2022-08-26T05:43:14;54.92;;;32.00;;
50671;SDS011;46021;55.882;37.654;2022-08-26T05:45:42;59.38;;;32.80;;
50671;SDS011;46021;55.882;37.654;2022-08-26T05:48:09;50.80;;;29.30;;
50671;SDS011;46021;55.882;37.654;2022-08-26T05:50:37;48.90;;;30.45;;
50671;SDS011;46021;55.882;37.654;2022-08-26T05:53:06;49.58;;;31.83;;
50671;SDS011;46021;55.882;37.654;2022-08-26T05:55:33;49.53;;;28.73;;
50671;SDS011;46021;55.882;37.654;2022-08-26T05:58:06;53.08;;;31.27;;
50671;SDS011;46021;55.882;37.654;2022-08-26T06:02:58;50.78;;;29.95;;
50671;SDS011;46021;55.882;37.654;2022-08-26T06:05:25;48.90;;;29.65;;
50671;SDS011;46021;55.882;37.654;2022-08-26T06:10:43;68.32;;;29.98;;
50671;SDS011;46021;55.882;37.654;2022-08-26T06:13:11;55.83;;;29.60;;
50671;SDS011;46021;55.882;37.654;2022-08-26T06:15:39;60.45;;;31.50;;
50671;SDS011;46021;55.882;37.654;2022-08-26T06:18:07;59.72;;;31.63;;
50671;SDS011;46021;55.882;37.654;2022-08-26T06:20:34;49.08;;;29.92;;
50671;SDS011;46021;55.882;37.654;2022-08-26T06:23:01;53.25;;;30.60;;
50671;SDS011;46021;55.882;37.654;2022-08-26T06:25:47;62.80;;;29.88;;
50671;SDS011;46021;55.882;37.654;2022-08-26T06:28:14;56.35;;;28.20;;
50671;SDS011;46021;55.882;37.654;2022-08-26T06:30:41;53.75;;;28.90;;
50671;SDS011;46021;55.882;37.654;2022-08-26T06:33:08;51.25;;;26.20;;
50671;SDS011;46021;55.882;37.654;2022-08-26T06:35:35;47.15;;;25.88;;
50671;SDS011;46021;55.882;37.654;2022-08-26T06:38:04;58.50;;;26.90;;
50671;SDS011;46021;55.882;37.654;2022-08-26T06:40:32;46.10;;;24.08;;
50671;SDS011;46021;55.882;37.654;2022-08-26T06:43:01;35.85;;;22.30;;
50671;SDS011;46021;55.882;37.654;2022-08-26T06:45:28;40.45;;;23.08;;
50671;SDS011;46021;55.882;37.654;2022-08-26T06:47:54;49.70;;;23.20;;
50671;SDS011;46021;55.882;37.654;2022-08-26T06:50:21;37.75;;;23.50;;
50671;SDS011;46021;55.882;37.654;2022-08-26T06:52:48;37.33;;;21.58;;
50671;SDS011;46021;55.882;37.654;2022-08-26T06:55:14;40.88;;;21.02;;
50671;SDS011;46021;55.882;37.654;2022-08-26T06:57:41;39.60;;;23.15;;
50671;SDS011;46021;55.882;37.654;2022-08-26T07:00:08;44.50;;;21.13;;
50671;SDS011;46021;55.882;37.654;2022-08-26T07:02:37;43.13;;;20.42;;
50671;SDS011;46021;55.882;37.654;2022-08-26T07:05:04;28.05;;;16.30;;
50671;SDS011;46021;55.882;37.654;2022-08-26T07:07:32;40.53;;;15.18;;
50671;SDS011;46021;55.882;37.654;2022-08-26T07:09:59;26.65;;;15.02;;
50671;SDS011;46021;55.882;37.654;2022-08-26T07:12:25;32.10;;;15.00;;
50671;SDS011;46021;55.882;37.654;2022-08-26T07:14:52;40.63;;;14.48;;
50671;SDS011;46021;55.882;37.654;2022-08-26T07:17:19;30.52;;;13.88;;
50671;SDS011;46021;55.882;37.654;2022-08-26T07:19:46;26.85;;;13.32;;
50671;SDS011;46021;55.882;37.654;2022-08-26T07:22:13;26.08;;;13.82;;
50671;SDS011;46021;55.882;37.654;2022-08-26T07:24:40;22.67;;;12.30;;
50671;SDS011;46021;55.882;37.654;2022-08-26T07:27:07;27.77;;;12.57;;
50671;SDS011;46021;55.882;37.654;2022-08-26T07:29:36;25.10;;;11.13;;
50671;SDS011;46021;55.882;37.654;2022-08-26T07:32:04;22.63;;;10.38;;
50671;SDS011;46021;55.882;37.654;2022-08-26T07:36:58;25.40;;;12.05;;
50671;SDS011;46021;55.882;37.654;2022-08-26T07:39:25;19.60;;;11.43;;
50671;SDS011;46021;55.882;37.654;2022-08-26T07:41:52;19.52;;;11.32;;
50671;SDS011;46021;55.882;37.654;2022-08-26T07:44:19;23.85;;;11.27;;
50671;SDS011;46021;55.882;37.654;2022-08-26T07:46:45;21.67;;;12.10;;
50671;SDS011;46021;55.882;37.654;2022-08-26T07:49:12;27.17;;;11.98;;
50671;SDS011;46021;55.882;37.654;2022-08-26T07:51:39;24.30;;;12.40;;
50671;SDS011;46021;55.882;37.654;2022-08-26T07:54:06;19.80;;;11.55;;
50671;SDS011;46021;55.882;37.654;2022-08-26T07:56:32;35.45;;;12.38;;
50671;SDS011;46021;55.882;37.654;2022-08-26T07:58:59;19.05;;;11.52;;
50671;SDS011;46021;55.882;37.654;2022-08-26T08:01:26;12.90;;;8.75;;
50671;SDS011;46021;55.882;37.654;2022-08-26T08:03:54;18.23;;;8.15;;
50671;SDS011;46021;55.882;37.654;2022-08-26T08:06:21;14.60;;;8.45;;
50671;SDS011;46021;55.882;37.654;2022-08-26T08:08:50;11.32;;;7.55;;
50671;SDS011;46021;55.882;37.654;2022-08-26T08:11:17;15.27;;;8.35;;
50671;SDS011;46021;55.882;37.654;2022-08-26T08:13:45;13.95;;;8.07;;
50671;SDS011;46021;55.882;37.654;2022-08-26T08:16:12;18.23;;;8.27;;
50671;SDS011;46021;55.882;37.654;2022-08-26T08:18:38;13.10;;;7.40;;
50671;SDS011;46021;55.882;37.654;2022-08-26T08:21:05;10.77;;;7.13;;
50671;SDS011;46021;55.882;37.654;2022-08-26T08:23:32;12.05;;;7.15;;
50671;SDS011;46021;55.882;37.654;2022-08-26T08:26:00;10.75;;;6.85;;
50671;SDS011;46021;55.882;37.654;2022-08-26T08:28:26;12.80;;;7.22;;
50671;SDS011;46021;55.882;37.654;2022-08-26T08:30:53;13.38;;;7.30;;
50671;SDS011;46021;55.882;37.654;2022-08-26T08:33:20;14.98;;;6.68;;
50671;SDS011;46021;55.882;37.654;2022-08-26T08:35:47;16.75;;;6.75;;
50671;SDS011;46021;55.882;37.654;2022-08-26T08:38:14;15.82;;;7.07;;
50671;SDS011;46021;55.882;37.654;2022-08-26T08:40:41;16.67;;;7.13;;
50671;SDS011;46021;55.882;37.654;2022-08-26T08:43:11;14.35;;;6.68;;
50671;SDS011;46021;55.882;37.654;2022-08-26T08:45:40;8.45;;;5.28;;
50671;SDS011;46021;55.882;37.654;2022-08-26T08:48:11;34.70;;;17.65;;
50671;SDS011;46021;55.882;37.654;2022-08-26T08:50:43;11.10;;;6.82;;
50671;SDS011;46021;55.882;37.654;2022-08-26T08:53:13;8.95;;;6.72;;
50671;SDS011;46021;55.882;37.654;2022-08-26T08:55:54;12.55;;;5.97;;
50671;SDS011;46021;55.882;37.654;2022-08-26T08:58:32;16.85;;;6.65;;
50671;SDS011;46021;55.882;37.654;2022-08-26T09:01:07;12.20;;;6.30;;
50671;SDS011;46021;55.882;37.654;2022-08-26T09:03:44;11.98;;;5.88;;
50671;SDS011;46021;55.882;37.654;2022-08-26T09:06:20;16.15;;;5.45;;
50671;SDS011;46021;55.882;37.654;2022-08-26T09:08:47;12.68;;;5.45;;
50671;SDS011;46021;55.882;37.654;2022-08-26T09:11:15;14.43;;;6.05;;
50671;SDS011;46021;55.882;37.654;2022-08-26T09:13:45;8.52;;;5.85;;
50671;SDS011;46021;55.882;37.654;2022-08-26T09:16:15;13.77;;;6.07;;
50671;SDS011;46021;55.882;37.654;2022-08-26T09:18:49;10.35;;;5.88;;
50671;SDS011;46021;55.882;37.654;2022-08-26T09:21:24;10.73;;;5.05;;
50671;SDS011;46021;55.882;37.654;2022-08-26T09:23:51;9.95;;;5.13;;
50671;SDS011;46021;55.882;37.654;2022-08-26T09:26:21;15.10;;;5.45;;
50671;SDS011;46021;55.882;37.654;2022-08-26T09:28:54;9.48;;;4.60;;
50671;SDS011;46021;55.882;37.654;2022-08-26T09:31:22;10.23;;;5.75;;
50671;SDS011;46021;55.882;37.654;2022-08-26T09:34:03;7.53;;;4.45;;
50671;SDS011;46021;55.882;37.654;2022-08-26T09:36:37;8.40;;;4.55;;
50671;SDS011;46021;55.882;37.654;2022-08-26T09:39:08;8.90;;;5.40;;
50671;SDS011;46021;55.882;37.654;2022-08-26T09:41:50;14.02;;;5.70;;
50671;SDS011;46021;55.882;37.654;2022-08-26T09:44:29;6.80;;;4.40;;
50671;SDS011;46021;55.882;37.654;2022-08-26T09:46:57;21.15;;;6.00;;
50671;SDS011;46021;55.882;37.654;2022-08-26T09:49:30;8.63;;;5.85;;
50671;SDS011;46021;55.882;37.654;2022-08-26T09:52:07;11.32;;;5.47;;
50671;SDS011;46021;55.882;37.654;2022-08-26T09:54:41;11.65;;;5.55;;
50671;SDS011;46021;55.882;37.654;2022-08-26T09:57:13;10.57;;;5.28;;
50671;SDS011;46021;55.882;37.654;2022-08-26T09:59:45;10.10;;;5.28;;
50671;SDS011;46021;55.882;37.654;2022-08-26T10:02:15;8.93;;;4.93;;
50671;SDS011;46021;55.882;37.654;2022-08-26T10:04:49;8.70;;;5.40;;
50671;SDS011;46021;55.882;37.654;2022-08-26T10:10:05;12.20;;;5.90;;
50671;SDS011;46021;55.882;37.654;2022-08-26T10:12:34;6.85;;;4.95;;
50671;SDS011;46021;55.882;37.654;2022-08-26T10:15:09;7.55;;;5.00;;
50671;SDS011;46021;55.882;37.654;2022-08-26T10:17:59;11.50;;;5.20;;
50671;SDS011;46021;55.882;37.654;2022-08-26T10:20:29;8.40;;;5.40;;
50671;SDS011;46021;55.882;37.654;2022-08-26T10:23:00;8.85;;;5.55;;
50671;SDS011;46021;55.882;37.654;2022-08-26T10:25:30;8.93;;;5.45;;
50671;SDS011;46021;55.882;37.654;2022-08-26T10:28:01;11.75;;;5.80;;
50671;SDS011;46021;55.882;37.654;2022-08-26T10:30:35;13.27;;;5.20;;
50671;SDS011;46021;55.882;37.654;2022-08-26T10:33:06;10.48;;;5.75;;
50671;SDS011;46021;55.882;37.654;2022-08-26T10:35:35;7.75;;;5.57;;
50671;SDS011;46021;55.882;37.654;2022-08-26T10:38:06;9.23;;;5.53;;
50671;SDS011;46021;55.882;37.654;2022-08-26T10:40:40;10.07;;;5.85;;
50671;SDS011;46021;55.882;37.654;2022-08-26T10:43:13;9.35;;;5.78;;
50671;SDS011;46021;55.882;37.654;2022-08-26T10:45:46;10.20;;;6.28;;
50671;SDS011;46021;55.882;37.654;2022-08-26T10:48:16;8.30;;;5.78;;
50671;SDS011;46021;55.882;37.654;2022-08-26T10:50:46;10.32;;;6.82;;
50671;SDS011;46021;55.882;37.654;2022-08-26T10:53:14;7.47;;;5.53;;
50671;SDS011;46021;55.882;37.654;2022-08-26T10:55:47;8.60;;;5.57;;
50671;SDS011;46021;55.882;37.654;2022-08-26T10:58:24;8.48;;;5.55;;
50671;SDS011;46021;55.882;37.654;2022-08-26T11:01:04;10.05;;;5.15;;
50671;SDS011;46021;55.882;37.654;2022-08-26T11:03:56;10.55;;;5.40;;
50671;SDS011;46021;55.882;37.654;2022-08-26T11:06:29;11.93;;;5.70;;
50671;SDS011;46021;55.882;37.654;2022-08-26T11:08:56;7.20;;;4.93;;
50671;SDS011;46021;55.882;37.654;2022-08-26T11:11:41;11.15;;;5.75;;
50671;SDS011;46021;55.882;37.654;2022-08-26T11:14:10;17.98;;;6.38;;
50671;SDS011;46021;55.882;37.654;2022-08-26T11:16:56;7.78;;;5.28;;
50671;SDS011;46021;55.882;37.654;2022-08-26T11:22:26;8.80;;;6.22;;
50671;SDS011;46021;55.882;37.654;2022-08-26T11:25:03;11.00;;;5.78;;
50671;SDS011;46021;55.882;37.654;2022-08-26T11:27:50;11.05;;;5.10;;
50671;SDS011;46021;55.882;37.654;2022-08-26T11:39:25;14.18;;;7.32;;
50671;SDS011;46021;55.882;37.654;2022-08-26T11:41:57;9.68;;;6.05;;
50671;SDS011;46021;55.882;37.654;2022-08-26T11:44:28;9.95;;;6.05;;
50671;SDS011;46021;55.882;37.654;2022-08-26T11:47:02;8.27;;;6.10;;
50671;SDS011;46021;55.882;37.654;2022-08-26T11:49:30;8.60;;;6.55;;
50671;SDS011;46021;55.882;37.654;2022-08-26T11:52:11;8.25;;;5.90;;
50671;SDS011;46021;55.882;37.654;2022-08-26T11:57:26;8.20;;;5.85;;
50671;SDS011;46021;55.882;37.654;2022-08-26T11:59:54;7.80;;;5.60;;
50671;SDS011;46021;55.882;37.654;2022-08-26T12:02:21;11.40;;;6.45;;
50671;SDS011;46021;55.882;37.654;2022-08-26T12:04:50;11.85;;;5.85;;
50671;SDS011;46021;55.882;37.654;2022-08-26T12:07:20;7.93;;;5.00;;
50671;SDS011;46021;55.882;37.654;2022-08-26T12:09:50;7.90;;;5.70;;
50671;SDS011;46021;55.882;37.654;2022-08-26T12:12:22;7.45;;;5.43;;
50671;SDS011;46021;55.882;37.654;2022-08-26T12:15:08;7.47;;;5.28;;
50671;SDS011;46021;55.882;37.654;2022-08-26T12:17:38;9.55;;;5.10;;
50671;SDS011;46021;55.882;37.654;2022-08-26T12:20:05;6.47;;;4.60;;
50671;SDS011;46021;55.882;37.654;2022-08-26T12:22:42;7.88;;;4.75;;
50671;SDS011;46021;55.882;37.654;2022-08-26T12:25:09;6.32;;;4.53;;
50671;SDS011;46021;55.882;37.654;2022-08-26T12:27:37;7.00;;;5.18;;
50671;SDS011;46021;55.882;37.654;2022-08-26T12:30:07;10.57;;;5.60;;
50671;SDS011;46021;55.882;37.654;2022-08-26T12:32:37;9.45;;;5.57;;
50671;SDS011;46021;55.882;37.654;2022-08-26T12:35:06;7.68;;;5.18;;
50671;SDS011;46021;55.882;37.654;2022-08-26T12:37:34;10.80;;;5.05;;
50671;SDS011;46021;55.882;37.654;2022-08-26T12:42:57;7.93;;;4.90;;
50671;SDS011;46021;55.882;37.654;2022-08-26T12:45:27;10.13;;;4.90;;
50671;SDS011;46021;55.882;37.654;2022-08-26T12:47:56;6.88;;;4.88;;
50671;SDS011;46021;55.882;37.654;2022-08-26T12:50:26;8.25;;;5.25;;
50671;SDS011;46021;55.882;37.654;2022-08-26T12:52:55;14.02;;;5.40;;
50671;SDS011;46021;55.882;37.654;2022-08-26T12:55:25;7.82;;;5.00;;
50671;SDS011;46021;55.882;37.654;2022-08-26T13:00:36;11.30;;;5.40;;
50671;SDS011;46021;55.882;37.654;2022-08-26T13:05:53;12.85;;;5.35;;
50671;SDS011;46021;55.882;37.654;2022-08-26T13:08:33;10.73;;;5.28;;
50671;SDS011;46021;55.882;37.654;2022-08-26T13:11:09;9.63;;;5.32;;
50671;SDS011;46021;55.882;37.654;2022-08-26T13:13:38;7.18;;;4.75;;
50671;SDS011;46021;55.882;37.654;2022-08-26T13:16:05;12.02;;;4.90;;
50671;SDS011;46021;55.882;37.654;2022-08-26T13:18:32;8.25;;;5.57;;
50671;SDS011;46021;55.882;37.654;2022-08-26T13:20:58;7.88;;;5.18;;
50671;SDS011;46021;55.882;37.654;2022-08-26T13:25:51;11.13;;;6.25;;
50671;SDS011;46021;55.882;37.654;2022-08-26T13:28:17;9.30;;;5.82;;
50671;SDS011;46021;55.882;37.654;2022-08-26T13:30:45;12.65;;;6.40;;
50671;SDS011;46021;55.882;37.654;2022-08-26T13:33:13;12.32;;;5.82;;
50671;SDS011;46021;55.882;37.654;2022-08-26T13:35:42;10.98;;;5.50;;
50671;SDS011;46021;55.882;37.654;2022-08-26T13:38:09;19.35;;;6.38;;
50671;SDS011;46021;55.882;37.654;2022-08-26T13:40:40;11.73;;;5.93;;
50671;SDS011;46021;55.882;37.654;2022-08-26T13:43:08;7.32;;;5.40;;
50671;SDS011;46021;55.882;37.654;2022-08-26T13:45:37;10.15;;;5.88;;
50671;SDS011;46021;55.882;37.654;2022-08-26T13:48:04;10.88;;;5.35;;
50671;SDS011;46021;55.882;37.654;2022-08-26T13:50:33;9.88;;;5.88;;
50671;SDS011;46021;55.882;37.654;2022-08-26T13:53:00;11.10;;;5.80;;
50671;SDS011;46021;55.882;37.654;2022-08-26T13:55:27;9.13;;;5.10;;
50671;SDS011;46021;55.882;37.654;2022-08-26T13:57:53;8.63;;;5.68;;
50671;SDS011;46021;55.882;37.654;2022-08-26T14:00:20;14.02;;;6.28;;
50671;SDS011;46021;55.882;37.654;2022-08-26T14:02:47;11.57;;;5.35;;
50671;SDS011;46021;55.882;37.654;2022-08-26T14:05:15;10.35;;;5.95;;
50671;SDS011;46021;55.882;37.654;2022-08-26T14:07:41;11.43;;;6.13;;
50671;SDS011;46021;55.882;37.654;2022-08-26T14:10:08;15.57;;;5.85;;
50671;SDS011;46021;55.882;37.654;2022-08-26T14:12:37;9.85;;;5.43;;
50671;SDS011;46021;55.882;37.654;2022-08-26T14:15:04;11.75;;;6.47;;
50671;SDS011;46021;55.882;37.654;2022-08-26T14:17:31;8.45;;;6.20;;
50671;SDS011;46021;55.882;37.654;2022-08-26T14:19:58;9.27;;;5.93;;
50671;SDS011;46021;55.882;37.654;2022-08-26T14:22:25;10.30;;;5.72;;
50671;SDS011;46021;55.882;37.654;2022-08-26T14:24:53;7.53;;;5.20;;
50671;SDS011;46021;55.882;37.654;2022-08-26T14:27:20;9.57;;;6.00;;
50671;SDS011;46021;55.882;37.654;2022-08-26T14:29:47;10.70;;;6.00;;
50671;SDS011;46021;55.882;37.654;2022-08-26T14:32:15;10.07;;;5.80;;
50671;SDS011;46021;55.882;37.654;2022-08-26T14:34:47;7.20;;;5.80;;
50671;SDS011;46021;55.882;37.654;2022-08-26T14:37:13;6.50;;;5.57;;
50671;SDS011;46021;55.882;37.654;2022-08-26T14:39:41;15.88;;;5.55;;
50671;SDS011;46021;55.882;37.654;2022-08-26T14:42:07;9.15;;;5.32;;
50671;SDS011;46021;55.882;37.654;2022-08-26T14:44:34;9.38;;;6.22;;
50671;SDS011;46021;55.882;37.654;2022-08-26T14:49:30;8.40;;;4.78;;
50671;SDS011;46021;55.882;37.654;2022-08-26T14:51:56;10.80;;;6.25;;
50671;SDS011;46021;55.882;37.654;2022-08-26T14:54:23;10.02;;;5.50;;
50671;SDS011;46021;55.882;37.654;2022-08-26T14:56:50;8.77;;;6.10;;
50671;SDS011;46021;55.882;37.654;2022-08-26T14:59:19;9.73;;;5.55;;
50671;SDS011;46021;55.882;37.654;2022-08-26T15:01:47;10.43;;;5.78;;
50671;SDS011;46021;55.882;37.654;2022-08-26T15:04:14;7.70;;;5.85;;
50671;SDS011;46021;55.882;37.654;2022-08-26T15:06:41;7.90;;;5.93;;
50671;SDS011;46021;55.882;37.654;2022-08-26T15:09:08;8.18;;;5.55;;
50671;SDS011;46021;55.882;37.654;2022-08-26T15:11:34;7.85;;;5.90;;
50671;SDS011;46021;55.882;37.654;2022-08-26T15:16:28;15.02;;;6.28;;
50671;SDS011;46021;55.882;37.654;2022-08-26T15:18:55;8.95;;;6.40;;
50671;SDS011;46021;55.882;37.654;2022-08-26T15:21:22;10.70;;;6.68;;
50671;SDS011;46021;55.882;37.654;2022-08-26T15:23:49;10.70;;;6.00;;